createdAt,value
2019-06-08T00:01:31.476Z,14.28
2019-06-08T00:04:00.105Z,14.33
2019-06-08T00:06:29.149Z,14.48
2019-06-08T00:08:58.905Z,14.40
2019-06-08T00:11:30.991Z,14.30
2019-06-08T00:13:59.632Z,14.37
2019-06-08T00:16:28.299Z,14.34
2019-06-08T00:18:57.197Z,14.32
2019-06-08T00:21:27.086Z,14.32
2019-06-08T00:23:58.925Z,14.25
2019-06-08T00:26:27.589Z,14.26
2019-06-08T00:28:56.334Z,14.34
2019-06-08T00:31:25.102Z,14.37
2019-06-08T00:33:56.669Z,14.42
2019-06-08T00:36:25.314Z,14.51
2019-06-08T00:38:55.258Z,14.59
2019-06-08T00:41:25.281Z,14.55
2019-06-08T00:43:57.511Z,14.51
2019-06-08T00:46:27.535Z,14.37
2019-06-08T00:48:59.342Z,14.34
2019-06-08T00:51:29.702Z,14.21
2019-06-08T00:53:58.504Z,14.14
2019-06-08T00:56:27.208Z,14.16
2019-06-08T00:58:55.836Z,14.18
2019-06-08T01:01:26.407Z,14.08
2019-06-08T01:03:55.089Z,14.10
2019-06-08T01:06:25.605Z,14.08
2019-06-08T01:08:54.329Z,14.17
2019-06-08T01:11:23.019Z,14.08
2019-06-08T01:13:51.611Z,14.02
2019-06-08T01:16:27.045Z,14.01
2019-06-08T01:18:59.122Z,13.98
2019-06-08T01:21:27.867Z,13.92
2019-06-08T01:23:56.486Z,13.89
2019-06-08T01:26:31.207Z,13.95
2019-06-08T01:29:03.079Z,14.13
2019-06-08T01:31:31.752Z,14.17
2019-06-08T01:34:06.738Z,14.17
2019-06-08T01:36:35.419Z,14.15
2019-06-08T01:39:07.812Z,14.09
2019-06-08T01:41:36.514Z,14.11
2019-06-08T01:44:05.438Z,14.08
2019-06-08T01:46:36.821Z,14.15
2019-06-08T01:49:06.468Z,14.21
2019-06-08T01:51:37.891Z,14.25
2019-06-08T01:54:06.625Z,14.23
2019-06-08T01:56:35.531Z,14.28
2019-06-08T01:59:05.763Z,14.35
2019-06-08T02:01:36.152Z,14.37
2019-06-08T02:04:04.889Z,14.36
2019-06-08T02:06:34.904Z,14.47
2019-06-08T02:09:03.891Z,14.55
2019-06-08T02:11:34.888Z,14.66
2019-06-08T02:14:03.892Z,14.71
2019-06-08T02:16:33.357Z,14.68
2019-06-08T02:19:02.034Z,14.68
2019-06-08T02:21:30.904Z,14.72
2019-06-08T02:23:59.589Z,14.75
2019-06-08T02:26:30.950Z,14.73
2019-06-08T02:29:00.056Z,14.80
2019-06-08T02:31:32.869Z,14.80
2019-06-08T02:34:02.678Z,14.78
2019-06-08T02:36:38.034Z,14.75
2019-06-08T02:39:07.563Z,14.81
2019-06-08T02:41:40.028Z,14.78
2019-06-08T02:44:08.894Z,14.78
2019-06-08T02:46:40.826Z,14.74
2019-06-08T02:49:09.539Z,14.73
2019-06-08T02:51:38.474Z,14.84
2019-06-08T02:54:07.250Z,14.79
2019-06-08T02:56:39.317Z,14.78
2019-06-08T02:59:08.285Z,14.81
2019-06-08T03:01:40.968Z,14.81
2019-06-08T03:04:09.684Z,14.81
2019-06-08T03:06:40.903Z,14.80
2019-06-08T03:09:09.079Z,14.82
2019-06-08T03:11:41.414Z,14.82
2019-06-08T03:14:10.134Z,14.83
2019-06-08T03:16:41.488Z,14.86
2019-06-08T03:19:21.711Z,14.93
2019-06-08T03:21:42.407Z,14.87
2019-06-08T03:24:14.053Z,14.95
2019-06-08T03:26:44.161Z,15.00
2019-06-08T03:29:13.285Z,14.96
2019-06-08T03:31:51.233Z,15.06
2019-06-08T03:34:12.378Z,15.25
2019-06-08T03:36:54.099Z,15.20
2019-06-08T03:39:17.476Z,15.09
2019-06-08T03:41:46.148Z,15.02
2019-06-08T03:44:14.796Z,15.01
2019-06-08T03:46:45.932Z,14.90
2019-06-08T03:49:16.691Z,14.86
2019-06-08T03:51:49.026Z,15.05
2019-06-08T03:54:20.650Z,15.25
2019-06-08T03:59:36.073Z,15.14
2019-06-08T04:02:04.897Z,15.25
2019-06-08T04:04:33.571Z,15.21
2019-06-08T04:07:02.494Z,15.32
2019-06-08T04:09:31.116Z,15.41
2019-06-08T04:12:02.577Z,15.32
2019-06-08T04:14:31.274Z,15.16
2019-06-08T04:16:59.935Z,15.09
2019-06-08T04:19:28.626Z,15.24
2019-06-08T04:22:00.588Z,15.28
2019-06-08T04:24:29.231Z,15.41
2019-06-08T04:27:01.085Z,15.21
2019-06-08T04:29:29.736Z,15.19
2019-06-08T04:31:58.646Z,15.30
2019-06-08T04:34:27.400Z,15.31
2019-06-08T04:36:57.426Z,15.32
2019-06-08T04:39:26.355Z,15.42
2019-06-08T04:41:56.524Z,15.26
2019-06-08T04:44:25.529Z,15.18
2019-06-08T04:46:54.239Z,15.27
2019-06-08T04:49:24.391Z,15.13
2019-06-08T04:51:54.429Z,15.02
2019-06-08T04:54:23.990Z,15.13
2019-06-08T04:56:52.679Z,15.09
2019-06-08T04:59:21.453Z,15.07
2019-06-08T05:01:51.295Z,15.10
2019-06-08T05:04:19.956Z,15.26
2019-06-08T05:06:49.815Z,15.25
2019-06-08T05:09:21.700Z,15.26
2019-06-08T05:11:51.713Z,15.12
2019-06-08T05:14:21.494Z,15.07
2019-06-08T05:16:50.238Z,15.08
2019-06-08T05:19:18.943Z,14.92
2019-06-08T05:21:50.033Z,14.81
2019-06-08T05:24:20.224Z,14.71
2019-06-08T05:26:52.597Z,14.76
2019-06-08T05:29:21.296Z,14.77
2019-06-08T05:31:49.988Z,14.66
2019-06-08T05:34:19.759Z,14.86
2019-06-08T05:36:49.778Z,14.83
2019-06-08T05:39:18.947Z,14.73
2019-06-08T05:41:49.808Z,14.88
2019-06-08T05:44:19.580Z,15.04
2019-06-08T05:46:50.000Z,14.98
2019-06-08T05:49:20.522Z,15.22
2019-06-08T05:51:50.111Z,15.35
2019-06-08T05:54:20.629Z,15.37
2019-06-08T05:56:50.622Z,15.36
2019-06-08T05:59:20.402Z,15.15
2019-06-08T06:01:51.001Z,15.15
2019-06-08T06:04:21.250Z,15.15
2019-06-08T06:06:53.154Z,15.18
2019-06-08T06:09:22.329Z,15.16
2019-06-08T06:11:51.255Z,15.09
2019-06-08T06:14:21.666Z,15.07
2019-06-08T06:16:51.302Z,14.99
2019-06-08T06:19:20.061Z,15.01
2019-06-08T06:21:51.691Z,15.09
2019-06-08T06:24:21.705Z,15.22
2019-06-08T06:26:51.685Z,15.21
2019-06-08T06:29:20.525Z,15.12
2019-06-08T06:31:49.779Z,15.05
2019-06-08T06:34:18.591Z,15.13
2019-06-08T06:36:50.090Z,15.19
2019-06-08T06:39:21.562Z,15.01
2019-06-08T06:41:50.199Z,14.81
2019-06-08T06:44:21.196Z,14.78
2019-06-08T06:46:52.732Z,14.89
2019-06-08T06:49:21.369Z,14.96
2019-06-08T06:51:50.552Z,15.01
2019-06-08T06:54:25.649Z,15.04
2019-06-08T06:56:54.387Z,15.13
2019-06-08T06:59:23.135Z,15.01
2019-06-08T07:01:55.784Z,14.88
2019-06-08T07:04:22.391Z,14.73
2019-06-08T07:06:52.238Z,14.82
2019-06-08T07:09:20.888Z,14.78
2019-06-08T07:11:57.611Z,14.79
2019-06-08T07:14:29.170Z,14.95
2019-06-08T07:16:58.267Z,14.81
2019-06-08T07:19:29.882Z,14.69
2019-06-08T07:21:58.634Z,14.82
2019-06-08T07:24:29.267Z,14.91
2019-06-08T07:26:58.789Z,14.99
2019-06-08T07:29:27.573Z,15.15
2019-06-08T07:31:56.209Z,15.06
2019-06-08T07:34:24.876Z,14.98
2019-06-08T07:36:55.547Z,15.09
2019-06-08T07:39:28.690Z,14.94
2019-06-08T07:41:57.601Z,15.13
2019-06-08T07:44:32.425Z,15.21
2019-06-08T07:47:01.149Z,15.09
2019-06-08T07:49:29.765Z,15.07
2019-06-08T07:52:09.452Z,14.99
2019-06-08T07:54:30.673Z,14.95
2019-06-08T07:56:59.621Z,14.94
2019-06-08T07:59:28.251Z,14.91
2019-06-08T08:01:58.330Z,14.89
2019-06-08T08:04:27.203Z,15.02
2019-06-08T08:06:56.708Z,15.09
2019-06-08T08:09:26.807Z,14.99
2019-06-08T08:11:55.468Z,15.14
2019-06-08T08:14:24.474Z,15.16
2019-06-08T08:16:53.263Z,15.21
2019-06-08T08:19:22.690Z,15.33
2019-06-08T08:22:03.124Z,15.53
2019-06-08T08:24:28.056Z,15.51
2019-06-08T08:27:02.072Z,15.41
2019-06-08T08:29:31.356Z,15.31
2019-06-08T08:32:01.791Z,15.31
2019-06-08T08:34:29.959Z,15.28
2019-06-08T08:37:04.009Z,15.15
2019-06-08T08:39:29.101Z,15.13
2019-06-08T08:42:04.367Z,15.14
2019-06-08T08:44:29.463Z,15.24
2019-06-08T08:47:00.551Z,15.15
2019-06-08T08:49:28.511Z,15.00
2019-06-08T08:52:00.047Z,14.85
2019-06-08T08:54:29.776Z,14.93
2019-06-08T08:57:04.516Z,14.99
2019-06-08T08:59:32.039Z,15.03
2019-06-08T09:02:02.788Z,15.29
2019-06-08T09:04:31.348Z,15.57
2019-06-08T09:07:05.546Z,15.86
2019-06-08T09:09:31.711Z,16.35
2019-06-08T09:12:04.245Z,16.53
2019-06-08T09:14:31.852Z,16.45
2019-06-08T09:17:02.176Z,16.42
2019-06-08T09:19:30.902Z,16.49
2019-06-08T09:22:02.298Z,16.57
2019-06-08T09:24:29.975Z,16.60
2019-06-08T09:27:00.956Z,16.91
2019-06-08T09:29:29.369Z,17.09
2019-06-08T09:32:00.448Z,17.37
2019-06-08T09:34:28.673Z,17.63
2019-06-08T09:37:00.120Z,17.66
2019-06-08T09:39:28.665Z,17.77
2019-06-08T09:42:00.453Z,17.54
2019-06-08T09:44:28.194Z,17.62
2019-06-08T09:47:02.775Z,17.49
2019-06-08T09:49:28.865Z,18.16
2019-06-08T09:52:00.404Z,19.00
2019-06-08T09:54:29.070Z,19.73
2019-06-08T09:57:00.944Z,20.19
2019-06-08T09:59:28.588Z,20.51
2019-06-08T10:02:05.080Z,20.44
2019-06-08T10:04:29.185Z,20.09
2019-06-08T10:07:00.163Z,19.72
2019-06-08T10:09:28.849Z,19.51
2019-06-08T10:11:59.576Z,19.58
2019-06-08T10:14:29.506Z,19.30
2019-06-08T10:17:00.591Z,19.01
2019-06-08T10:19:28.658Z,18.66
2019-06-08T10:21:58.782Z,18.29
2019-06-08T10:24:27.451Z,17.95
2019-06-08T10:26:57.176Z,17.96
2019-06-08T10:29:26.087Z,17.88
2019-06-08T10:31:55.176Z,17.81
2019-06-08T10:34:27.327Z,17.62
2019-06-08T10:37:00.723Z,17.46
2019-06-08T10:39:28.340Z,17.30
2019-06-08T10:41:59.851Z,17.29
2019-06-08T10:44:28.347Z,17.30
2019-06-08T10:47:00.533Z,17.31
2019-06-08T10:49:28.602Z,17.37
2019-06-08T10:52:01.555Z,17.57
2019-06-08T10:54:29.344Z,17.67
2019-06-08T10:57:00.372Z,18.28
2019-06-08T10:59:28.994Z,18.92
2019-06-08T11:02:01.021Z,19.22
2019-06-08T11:04:29.428Z,19.41
2019-06-08T11:07:05.655Z,19.52
2019-06-08T11:09:33.129Z,19.80
2019-06-08T11:12:03.367Z,19.86
2019-06-08T11:14:32.741Z,19.97
2019-06-08T11:17:02.625Z,20.38
2019-06-08T11:19:31.713Z,21.07
2019-06-08T11:22:04.999Z,21.09
2019-06-08T11:24:33.126Z,20.94
2019-06-08T11:27:03.411Z,21.06
2019-06-08T11:29:38.366Z,20.57
2019-06-08T11:32:09.295Z,20.66
2019-06-08T11:34:37.675Z,21.13
2019-06-08T11:37:13.090Z,21.32
2019-06-08T11:39:42.515Z,20.77
2019-06-08T11:42:19.103Z,20.81
2019-06-08T11:44:50.884Z,21.37
2019-06-08T11:47:20.609Z,21.37
2019-06-08T11:49:50.062Z,21.65
2019-06-08T11:52:18.814Z,21.57
2019-06-08T11:54:48.456Z,21.11
2019-06-08T11:57:17.795Z,20.29
2019-06-08T11:59:48.480Z,20.15
2019-06-08T12:02:20.320Z,20.44
2019-06-08T12:04:52.229Z,20.67
2019-06-08T12:07:22.390Z,20.52
2019-06-08T12:09:51.085Z,20.15
2019-06-08T12:12:21.321Z,19.64
2019-06-08T12:14:51.928Z,19.32
2019-06-08T12:17:24.335Z,18.84
2019-06-08T12:19:54.592Z,18.49
2019-06-08T12:22:23.485Z,18.16
2019-06-08T12:24:54.733Z,17.99
2019-06-08T12:27:33.093Z,18.17
2019-06-08T12:29:55.616Z,18.22
2019-06-08T12:32:24.555Z,18.22
2019-06-08T12:34:54.738Z,18.21
2019-06-08T12:37:24.967Z,17.98
2019-06-08T12:39:53.628Z,17.65
2019-06-08T12:42:24.984Z,17.60
2019-06-08T12:44:53.959Z,17.78
2019-06-08T12:47:26.674Z,17.95
2019-06-08T12:49:53.257Z,18.68
2019-06-08T12:52:22.448Z,19.37
2019-06-08T12:55:00.085Z,19.77
2019-06-08T12:57:23.008Z,20.37
2019-06-08T12:59:52.857Z,21.08
2019-06-08T13:02:28.940Z,21.66
2019-06-08T13:04:58.131Z,22.34
2019-06-08T13:07:28.156Z,22.38
2019-06-08T13:09:58.999Z,22.50
2019-06-08T13:12:28.903Z,23.26
2019-06-08T13:14:58.295Z,23.44
2019-06-08T13:17:28.016Z,23.74
2019-06-08T13:19:58.156Z,23.62
2019-06-08T13:22:29.041Z,23.38
2019-06-08T13:25:10.271Z,23.46
2019-06-08T13:27:28.234Z,24.50
2019-06-08T13:29:57.754Z,26.82
2019-06-08T13:32:29.401Z,27.00
2019-06-08T13:34:58.617Z,27.20
2019-06-08T13:37:27.646Z,28.23
2019-06-08T13:39:59.035Z,29.26
2019-06-08T13:42:27.982Z,28.99
2019-06-08T13:44:59.019Z,29.80
2019-06-08T13:47:28.646Z,28.60
2019-06-08T13:49:58.777Z,27.57
2019-06-08T13:52:28.805Z,27.93
2019-06-08T13:54:58.346Z,28.99
2019-06-08T13:57:27.208Z,29.10
2019-06-08T13:59:57.852Z,29.14
2019-06-08T14:02:29.083Z,29.42
2019-06-08T14:04:59.115Z,29.75
2019-06-08T14:07:34.290Z,30.73
2019-06-08T14:10:00.783Z,31.33
2019-06-08T14:12:30.938Z,31.26
2019-06-08T14:15:03.759Z,30.27
2019-06-08T14:17:32.442Z,29.54
2019-06-08T14:20:02.667Z,30.92
2019-06-08T14:22:31.653Z,31.31
2019-06-08T14:25:00.594Z,30.42
2019-06-08T14:27:33.546Z,31.01
2019-06-08T14:30:02.654Z,31.95
2019-06-08T14:32:31.492Z,31.99
2019-06-08T14:35:02.829Z,31.80
2019-06-08T14:37:30.616Z,32.76
2019-06-08T14:39:59.318Z,33.41
2019-06-08T14:42:31.717Z,33.57
2019-06-08T14:45:02.111Z,31.04
2019-06-08T14:47:32.565Z,31.71
2019-06-08T14:50:02.661Z,31.77
2019-06-08T14:52:32.089Z,29.53
2019-06-08T14:55:00.746Z,29.23
2019-06-08T14:57:30.979Z,28.54
2019-06-08T15:00:08.419Z,27.68
2019-06-08T15:02:37.921Z,27.01
2019-06-08T15:05:08.212Z,25.31
2019-06-08T15:07:38.856Z,24.86
2019-06-08T15:10:10.093Z,25.62
2019-06-08T15:12:38.993Z,25.79
2019-06-08T15:15:10.862Z,25.06
2019-06-08T15:17:38.125Z,26.37
2019-06-08T15:20:08.857Z,26.21
2019-06-08T15:22:38.946Z,25.48
2019-06-08T15:25:11.007Z,26.61
2019-06-08T15:27:38.951Z,28.44
2019-06-08T15:30:10.290Z,28.78
2019-06-08T15:32:38.982Z,26.75
2019-06-08T15:35:13.608Z,25.07
2019-06-08T15:37:49.085Z,24.80
2019-06-08T15:40:17.877Z,25.95
2019-06-08T15:42:47.970Z,24.62
2019-06-08T15:45:18.285Z,24.05
2019-06-08T15:47:53.024Z,23.55
2019-06-08T15:50:24.219Z,23.00
2019-06-08T15:52:52.848Z,23.05
2019-06-08T15:55:22.860Z,23.82
2019-06-08T15:57:52.261Z,23.01
2019-06-08T16:00:24.803Z,21.94
2019-06-08T16:02:58.497Z,21.39
2019-06-08T16:05:27.816Z,21.71
2019-06-08T16:07:56.823Z,22.24
2019-06-08T16:10:28.384Z,24.13
2019-06-08T16:12:57.010Z,25.52
2019-06-08T16:15:26.863Z,24.70
2019-06-08T16:17:55.629Z,23.54
2019-06-08T16:20:27.534Z,22.58
2019-06-08T16:22:57.594Z,21.71
2019-06-08T16:25:29.739Z,20.92
2019-06-08T16:28:02.859Z,20.17
2019-06-08T16:30:33.152Z,19.67
2019-06-08T16:33:01.788Z,19.37
2019-06-08T16:35:31.768Z,19.44
2019-06-08T16:38:00.970Z,19.37
2019-06-08T16:40:34.011Z,19.31
2019-06-08T16:43:03.047Z,19.22
2019-06-08T16:45:33.165Z,19.03
2019-06-08T16:48:03.386Z,19.03
2019-06-08T16:50:32.268Z,19.15
2019-06-08T16:53:02.779Z,19.46
2019-06-08T16:55:32.106Z,20.71
2019-06-08T16:58:02.015Z,22.69
2019-06-08T17:00:36.530Z,24.03
2019-06-08T17:03:02.775Z,24.79
2019-06-08T17:05:31.427Z,25.13
2019-06-08T17:08:00.365Z,24.16
2019-06-08T17:10:29.054Z,22.86
2019-06-08T17:12:57.961Z,22.22
2019-06-08T17:15:28.036Z,22.21
2019-06-08T17:17:57.686Z,21.60
2019-06-08T17:20:26.519Z,20.88
2019-06-08T17:22:55.424Z,20.12
2019-06-08T17:25:24.410Z,18.85
2019-06-08T17:27:55.971Z,17.89
2019-06-08T17:30:27.321Z,17.43
2019-06-08T17:32:58.967Z,17.87
2019-06-08T17:35:27.663Z,18.70
2019-06-08T17:37:56.375Z,19.34
2019-06-08T17:40:25.264Z,20.02
2019-06-08T17:42:55.296Z,20.81
2019-06-08T17:45:24.450Z,21.27
2019-06-08T17:47:53.484Z,21.15
2019-06-08T17:50:22.202Z,21.10
2019-06-08T17:52:52.128Z,21.15
2019-06-08T17:55:24.908Z,20.84
2019-06-08T17:57:55.204Z,20.46
2019-06-08T18:00:25.113Z,20.19
2019-06-08T18:02:57.727Z,20.22
2019-06-08T18:05:28.162Z,20.54
2019-06-08T18:07:57.900Z,20.67
2019-06-08T18:10:27.813Z,20.78
2019-06-08T18:12:58.897Z,20.71
2019-06-08T18:15:28.390Z,20.71
2019-06-08T18:17:58.528Z,20.60
2019-06-08T18:20:28.278Z,20.45
2019-06-08T18:22:57.858Z,20.36
2019-06-08T18:25:28.146Z,19.91
2019-06-08T18:28:06.650Z,19.53
2019-06-08T18:30:27.751Z,19.53
2019-06-08T18:32:58.289Z,19.38
2019-06-08T18:35:27.854Z,19.30
2019-06-08T18:37:57.875Z,19.14
2019-06-08T18:40:27.256Z,18.38
2019-06-08T18:42:58.170Z,17.57
2019-06-08T18:45:29.687Z,17.04
2019-06-08T18:47:58.425Z,16.82
2019-06-08T18:50:28.437Z,16.74
2019-06-08T18:52:57.978Z,16.61
2019-06-08T18:55:28.035Z,16.47
2019-06-08T18:57:57.775Z,16.42
2019-06-08T19:00:39.761Z,16.14
2019-06-08T19:03:09.788Z,16.08
2019-06-08T19:05:45.233Z,15.92
2019-06-08T19:08:13.141Z,15.71
2019-06-08T19:10:42.729Z,15.40
2019-06-08T19:13:12.538Z,15.06
2019-06-08T19:15:44.478Z,14.78
2019-06-08T19:18:13.415Z,14.53
2019-06-08T19:20:47.016Z,14.26
2019-06-08T19:23:14.665Z,14.04
2019-06-08T19:25:49.590Z,13.88
2019-06-08T19:28:35.265Z,13.77
2019-06-08T19:30:51.642Z,13.80
2019-06-08T19:33:20.784Z,13.74
2019-06-08T19:35:53.646Z,13.72
2019-06-08T19:38:20.228Z,13.62
2019-06-08T19:40:50.705Z,13.52
2019-06-08T19:43:22.534Z,13.38
2019-06-08T19:45:52.107Z,13.29
2019-06-08T19:48:21.390Z,13.11
2019-06-08T19:50:54.229Z,12.99
2019-06-08T19:53:21.908Z,12.86
2019-06-08T19:55:53.943Z,12.80
2019-06-08T19:58:21.442Z,12.77
2019-06-08T20:00:54.892Z,12.64
2019-06-08T20:03:23.686Z,12.53
2019-06-08T20:05:53.579Z,12.48
2019-06-08T20:08:22.311Z,12.48
2019-06-08T20:10:52.146Z,12.55
2019-06-08T20:13:23.065Z,12.55
2019-06-08T20:15:57.133Z,12.50
2019-06-08T20:18:22.687Z,12.48
2019-06-08T20:20:54.510Z,12.40
2019-06-08T20:23:23.409Z,12.35
2019-06-08T20:25:53.448Z,12.26
2019-06-08T20:28:28.394Z,12.20
2019-06-08T20:30:57.916Z,12.13
2019-06-08T20:33:27.403Z,12.03
2019-06-08T20:35:58.565Z,12.00
2019-06-08T20:38:38.244Z,11.95
2019-06-08T20:40:57.973Z,11.90
2019-06-08T20:43:38.102Z,11.79
2019-06-08T20:46:08.137Z,11.73
2019-06-08T20:48:44.236Z,11.78
2019-06-08T20:51:19.619Z,11.75
2019-06-08T20:53:52.479Z,11.71
2019-06-08T20:56:21.360Z,11.63
2019-06-08T20:58:54.026Z,11.59
2019-06-08T21:01:23.519Z,11.53
2019-06-08T21:03:52.798Z,11.49
2019-06-08T21:06:21.456Z,11.40
2019-06-08T21:08:51.616Z,11.33
2019-06-08T21:11:20.842Z,11.33
2019-06-08T21:13:52.173Z,11.24
2019-06-08T21:16:20.926Z,11.19
2019-06-08T21:18:50.820Z,11.16
2019-06-08T21:21:22.051Z,11.16
2019-06-08T21:23:54.027Z,11.19
2019-06-08T21:26:21.593Z,11.14
2019-06-08T21:28:52.804Z,11.15
2019-06-08T21:31:28.435Z,11.10
2019-06-08T21:34:00.421Z,11.04
2019-06-08T21:36:27.123Z,11.01
2019-06-08T21:39:01.926Z,10.98
2019-06-08T21:41:29.841Z,10.88
2019-06-08T21:44:01.688Z,10.89
2019-06-08T21:46:30.716Z,10.85
2019-06-08T21:49:00.591Z,10.79
2019-06-08T21:51:29.652Z,10.78
2019-06-08T21:53:59.251Z,10.77
2019-06-08T21:56:29.016Z,10.72
2019-06-08T21:59:00.914Z,10.67
2019-06-08T22:01:30.379Z,10.70
2019-06-08T22:04:02.351Z,10.70
2019-06-08T22:06:31.454Z,10.67
2019-06-08T22:09:02.865Z,10.60
2019-06-08T22:11:37.728Z,10.56
2019-06-08T22:14:07.342Z,10.51
2019-06-08T22:16:42.528Z,10.46
2019-06-08T22:19:11.172Z,10.44
2019-06-08T22:21:39.947Z,10.36
2019-06-08T22:24:08.642Z,10.32
2019-06-08T22:26:38.876Z,10.36
2019-06-08T22:29:07.998Z,10.29
2019-06-08T22:31:38.271Z,10.25
2019-06-08T22:34:07.503Z,10.21
2019-06-08T22:36:37.198Z,10.20
2019-06-08T22:39:08.060Z,10.23
2019-06-08T22:41:37.418Z,10.32
2019-06-08T22:44:08.493Z,10.32
2019-06-08T22:46:38.833Z,10.36
2019-06-08T22:49:10.565Z,10.33
2019-06-08T22:51:40.690Z,10.29
2019-06-08T22:54:10.722Z,10.28
2019-06-08T22:56:40.537Z,10.29
2019-06-08T22:59:10.550Z,10.30
2019-06-08T23:01:39.960Z,10.31
2019-06-08T23:04:11.415Z,10.26
2019-06-08T23:06:42.068Z,10.26
2019-06-08T23:09:11.048Z,10.36
2019-06-08T23:11:42.464Z,10.36
2019-06-08T23:14:14.319Z,10.31
2019-06-08T23:16:43.272Z,10.17
2019-06-08T23:19:17.455Z,10.07
2019-06-08T23:21:47.602Z,10.00
2019-06-08T23:24:18.140Z,10.04
2019-06-08T23:26:49.984Z,10.08
2019-06-08T23:29:20.685Z,10.16
2019-06-08T23:31:53.357Z,10.12
2019-06-08T23:34:27.532Z,10.03
2019-06-08T23:37:00.879Z,9.99
2019-06-08T23:39:28.491Z,10.08
2019-06-08T23:41:57.598Z,10.16
2019-06-08T23:44:28.329Z,10.18
2019-06-08T23:46:58.548Z,10.18
2019-06-08T23:49:27.824Z,10.20
2019-06-08T23:52:02.673Z,10.25
2019-06-08T23:54:32.820Z,10.20
2019-06-08T23:57:02.874Z,10.15
2019-06-08T23:59:32.939Z,10.11
